Time;durP1;ratioP1;P1;durP2;ratioP2;P2;SDS_P1;SDS_P2;PMS_P1;PMS_P2;Temp;Humidity;BMP_temperature;BMP_pressure;BME280_temperature;BME280_humidity;BME280_pressure;Samples;Min_cycle;Max_cycle;Signal;HPM_P1;HPM_P2
2023/05/28 00:01:42;;;;;;;15.67;6.97;;;;;;;10.27;100.00;101927.91;7392566;19;20424;-37
2023/05/28 00:04:12;;;;;;;22.63;6.93;;;;;;;10.24;100.00;101918.28;7388333;19;20514;-39
2023/05/28 00:06:41;;;;;;;16.93;6.60;;;;;;;10.13;100.00;101922.78;7394802;19;20413;-38
2023/05/28 00:09:12;;;;;;;19.97;7.33;;;;;;;10.01;100.00;101919.44;7388770;19;20444;-36
2023/05/28 00:11:42;;;;;;;22.80;7.27;;;;;;;9.96;100.00;101924.28;7392193;19;20968;-41
2023/05/28 00:14:14;;;;;;;16.73;6.93;;;;;;;9.98;100.00;101914.06;7387576;19;20552;-38
2023/05/28 00:16:44;;;;;;;15.93;6.83;;;;;;;9.91;100.00;101906.75;7393172;19;20421;-38
2023/05/28 00:19:14;;;;;;;23.63;7.30;;;;;;;9.89;100.00;101903.19;7387989;19;20975;-40
2023/05/28 00:21:44;;;;;;;20.63;8.43;;;;;;;9.86;100.00;101889.31;7394257;19;20418;-36
2023/05/28 00:24:13;;;;;;;25.40;7.53;;;;;;;9.75;100.00;101892.00;7389696;19;20459;-39
2023/05/28 00:26:43;;;;;;;16.93;7.13;;;;;;;9.77;100.00;101872.38;7394301;19;20431;-38
2023/05/28 00:29:15;;;;;;;22.07;7.13;;;;;;;9.72;100.00;101866.94;7388860;19;20976;-39
2023/05/28 00:31:45;;;;;;;20.97;7.27;;;;;;;9.72;100.00;101865.25;7392280;19;20961;-37
2023/05/28 00:34:14;;;;;;;22.83;7.43;;;;;;;9.72;100.00;101854.94;7388655;19;20561;-36
2023/05/28 00:36:44;;;;;;;27.70;7.60;;;;;;;9.75;100.00;101850.78;7392418;19;20484;-38
2023/05/28 00:39:14;;;;;;;20.47;7.53;;;;;;;9.74;100.00;101852.44;7390329;19;20467;-37
2023/05/28 00:41:43;;;;;;;28.17;9.13;;;;;;;9.69;100.00;101853.88;7391772;19;20423;-37
2023/05/28 00:44:16;;;;;;;15.90;7.40;;;;;;;9.62;100.00;101849.09;7388539;19;20801;-37
2023/05/28 00:46:49;;;;;;;20.00;8.23;;;;;;;9.59;100.00;101842.97;7390978;19;21020;-38
2023/05/28 00:49:18;;;;;;;18.17;8.03;;;;;;;9.53;100.00;101837.41;7389449;19;21156;-35
2023/05/28 00:51:48;;;;;;;20.03;8.13;;;;;;;9.48;100.00;101846.53;7391350;19;20484;-39
2023/05/28 00:54:18;;;;;;;27.83;8.53;;;;;;;9.40;100.00;101850.31;7387572;19;20460;-42
2023/05/28 00:56:48;;;;;;;17.93;7.47;;;;;;;9.36;100.00;101843.19;7391103;19;20412;-38
2023/05/28 00:59:23;;;;;;;24.90;8.20;;;;;;;9.25;100.00;101843.41;7389034;19;20446;-38
2023/05/28 01:01:53;;;;;;;15.97;6.60;;;;;;;9.16;100.00;101855.66;7391044;19;20500;-37
2023/05/28 01:04:24;;;;;;;22.23;7.83;;;;;;;9.15;100.00;101849.63;7388041;19;20470;-37
2023/05/28 01:06:56;;;;;;;24.93;7.80;;;;;;;9.13;100.00;101846.06;7391821;19;20819;-39
2023/05/28 01:09:26;;;;;;;34.27;7.40;;;;;;;9.11;100.00;101845.06;7388406;19;20447;-37
2023/05/28 01:11:56;;;;;;;23.37;8.80;;;;;;;9.11;100.00;101847.66;7391221;19;20418;-37
2023/05/28 01:14:30;;;;;;;21.30;7.47;;;;;;;9.13;100.00;101834.88;7387077;19;20455;-37
2023/05/28 01:17:00;;;;;;;25.83;8.27;;;;;;;9.11;100.00;101839.94;7393073;19;20863;-37
2023/05/28 01:19:31;;;;;;;20.70;7.80;;;;;;;9.04;100.00;101838.63;7389337;19;20450;-37
2023/05/28 01:22:05;;;;;;;25.60;7.53;;;;;;;9.05;100.00;101827.56;7391048;19;20411;-37
2023/05/28 01:24:39;;;;;;;19.13;7.17;;;;;;;9.02;100.00;101827.34;7388040;19;20470;-37
2023/05/28 01:27:09;;;;;;;20.50;7.70;;;;;;;9.00;100.00;101834.09;7400890;19;21139;-37
2023/05/28 01:29:38;;;;;;;21.23;8.53;;;;;;;9.00;100.00;101828.94;7398115;19;20461;-37
2023/05/28 01:32:08;;;;;;;21.33;8.30;;;;;;;8.98;100.00;101825.34;7397540;19;20411;-37
2023/05/28 01:34:38;;;;;;;32.97;14.40;;;;;;;9.00;100.00;101813.50;7394675;19;20534;-37
2023/05/28 01:37:10;;;;;;;25.73;10.97;;;;;;;8.98;100.00;101809.91;7397657;19;20408;-40
2023/05/28 01:39:45;;;;;;;20.27;9.00;;;;;;;8.89;100.00;101815.38;7398244;19;20454;-37
2023/05/28 01:42:15;;;;;;;22.13;8.60;;;;;;;8.84;100.00;101805.53;7392275;19;20407;-37
2023/05/28 01:44:46;;;;;;;23.93;8.67;;;;;;;8.76;100.00;101808.50;7395985;19;20484;-37
2023/05/28 01:47:16;;;;;;;28.10;7.77;;;;;;;8.70;100.00;101809.78;7392959;19;20483;-37
2023/05/28 01:49:46;;;;;;;19.30;8.47;;;;;;;8.75;100.00;101796.44;7395702;19;20419;-39
2023/05/28 01:52:15;;;;;;;20.73;8.33;;;;;;;8.73;100.00;101798.00;7394407;19;21042;-37
2023/05/28 01:54:48;;;;;;;26.10;9.63;;;;;;;8.68;100.00;101788.22;7397216;19;20502;-37
2023/05/28 01:57:18;;;;;;;20.30;8.20;;;;;;;8.63;100.00;101790.47;7393111;19;20403;-40
2023/05/28 01:59:47;;;;;;;17.60;7.63;;;;;;;8.57;100.00;101782.34;7395888;19;20474;-37
2023/05/28 02:02:17;;;;;;;15.93;7.43;;;;;;;8.57;100.00;101780.66;7394821;19;20400;-41
2023/05/28 02:04:47;;;;;;;21.03;8.03;;;;;;;8.49;100.00;101772.41;7395535;19;20773;-37
2023/05/28 02:07:17;;;;;;;21.53;8.13;;;;;;;8.48;100.00;101786.06;7394206;19;20511;-39
2023/05/28 02:09:49;;;;;;;25.83;8.60;;;;;;;8.49;100.00;101786.94;7397756;19;20409;-43
2023/05/28 02:12:18;;;;;;;25.97;8.83;;;;;;;8.50;100.00;101779.34;7384933;19;20818;-37
2023/05/28 02:14:49;;;;;;;16.53;8.00;;;;;;;8.57;100.00;101775.50;7395158;19;20451;-36
2023/05/28 02:17:20;;;;;;;25.23;8.33;;;;;;;8.54;100.00;101774.41;7391542;19;20407;-37
2023/05/28 02:19:50;;;;;;;25.53;8.27;;;;;;;8.54;100.00;101774.41;7394500;19;20420;-37
2023/05/28 02:22:20;;;;;;;16.13;8.47;;;;;;;8.53;100.00;101772.66;7393451;19;20500;-36
2023/05/28 02:24:52;;;;;;;26.30;9.53;;;;;;;8.49;100.00;101777.56;7396666;19;20434;-37
2023/05/28 02:27:23;;;;;;;22.43;8.00;;;;;;;8.46;100.00;101777.34;7393356;19;20931;-37
2023/05/28 02:29:52;;;;;;;19.10;7.20;;;;;;;8.45;100.00;101778.13;7397101;19;20411;-36
2023/05/28 02:32:22;;;;;;;23.53;7.90;;;;;;;8.44;100.00;101771.22;7391485;19;20407;-37
2023/05/28 02:34:54;;;;;;;23.80;9.87;;;;;;;8.49;100.00;101777.56;7395084;19;20635;-37
2023/05/28 02:37:25;;;;;;;22.03;7.67;;;;;;;8.41;100.00;101776.13;7391167;19;20400;-37
2023/05/28 02:39:57;;;;;;;21.03;8.30;;;;;;;8.43;100.00;101777.16;7395426;19;20415;-37
2023/05/28 02:42:26;;;;;;;25.40;9.13;;;;;;;8.49;100.00;101777.56;7391482;19;20843;-38
2023/05/28 02:44:56;;;;;;;24.27;8.00;;;;;;;8.43;100.00;101781.41;7397492;19;20443;-38
2023/05/28 02:47:26;;;;;;;22.40;8.90;;;;;;;8.31;100.00;101781.47;7394399;19;20399;-39
2023/05/28 02:49:56;;;;;;;17.07;7.17;;;;;;;8.26;100.00;101782.84;7395489;19;20423;-38
2023/05/28 02:52:25;;;;;;;22.67;8.40;;;;;;;8.28;100.00;101792.44;7392695;19;20788;-37
2023/05/28 02:54:58;;;;;;;18.97;7.70;;;;;;;8.31;100.00;101790.06;7396073;19;21005;-37
2023/05/28 02:57:29;;;;;;;24.97;8.90;;;;;;;8.26;100.00;101785.41;7392790;19;20420;-37
2023/05/28 02:59:58;;;;;;;21.17;8.90;;;;;;;8.19;100.00;101782.44;7396358;19;20492;-37
2023/05/28 03:02:28;;;;;;;26.23;8.33;;;;;;;8.20;100.00;101783.31;7392451;19;20486;-39
2023/05/28 03:05:01;;;;;;;22.13;8.40;;;;;;;8.20;100.00;101780.75;7395437;19;20974;-36
2023/05/28 03:07:31;;;;;;;20.43;8.87;;;;;;;8.27;100.00;101785.53;7391410;19;20439;-37
2023/05/28 03:10:03;;;;;;;21.37;8.53;;;;;;;8.20;100.00;101776.50;7395195;19;20427;-37
2023/05/28 03:12:33;;;;;;;31.07;8.57;;;;;;;8.16;100.00;101792.47;7390072;19;20428;-38
2023/05/28 03:15:02;;;;;;;20.97;9.90;;;;;;;8.23;100.00;101783.53;7395339;19;20475;-38
2023/05/28 03:17:32;;;;;;;19.70;8.27;;;;;;;8.19;100.00;101787.56;7391395;19;20777;-37
2023/05/28 03:20:02;;;;;;;24.00;8.97;;;;;;;8.27;100.00;101792.34;7395059;19;20760;-37
2023/05/28 03:22:32;;;;;;;20.80;9.30;;;;;;;8.17;100.00;101785.69;7389613;19;20432;-37
2023/05/28 03:25:04;;;;;;;25.60;9.93;;;;;;;8.20;100.00;101794.47;7395142;19;20476;-39
2023/05/28 03:27:34;;;;;;;22.97;9.00;;;;;;;8.14;100.00;101788.06;7391573;19;20431;-38
2023/05/28 03:30:04;;;;;;;25.90;10.83;;;;;;;8.17;100.00;101789.16;7397291;19;20475;-37
2023/05/28 03:32:33;;;;;;;26.37;10.10;;;;;;;8.23;100.00;101792.13;7392206;19;20427;-37
2023/05/28 03:35:03;;;;;;;23.87;9.50;;;;;;;8.30;100.00;101782.28;7394979;19;20971;-37
2023/05/28 03:37:32;;;;;;;22.03;10.53;;;;;;;8.33;100.00;101796.22;7391104;19;21042;-37
2023/05/28 03:40:07;;;;;;;20.90;9.60;;;;;;;8.27;100.00;101789.75;7395974;19;20412;-37
2023/05/28 03:42:36;;;;;;;22.97;9.70;;;;;;;8.27;100.00;101794.91;7390354;19;20414;-38
2023/05/28 03:45:07;;;;;;;22.80;10.17;;;;;;;8.23;100.00;101794.72;7395179;19;20514;-38
2023/05/28 03:47:37;;;;;;;24.03;9.63;;;;;;;8.15;100.00;101800.13;7390522;19;20422;-37
2023/05/28 03:50:09;;;;;;;17.63;9.07;;;;;;;8.13;100.00;101797.44;7395619;19;20427;-38
2023/05/28 03:52:38;;;;;;;23.67;9.43;;;;;;;8.12;100.00;101795.66;7391594;19;20475;-37
2023/05/28 03:55:11;;;;;;;23.27;9.63;;;;;;;8.08;100.00;101798.78;7395121;19;20531;-37
2023/05/28 03:57:41;;;;;;;26.50;9.83;;;;;;;8.14;100.00;101799.22;7390205;19;20478;-37
2023/05/28 04:00:13;;;;;;;27.80;9.63;;;;;;;8.18;100.00;101795.16;7395201;19;20428;-37
2023/05/28 04:02:43;;;;;;;19.30;9.40;;;;;;;8.23;100.00;101794.72;7389475;19;20427;-37
2023/05/28 04:05:12;;;;;;;24.67;10.07;;;;;;;8.24;100.00;101800.72;7394538;19;20523;-38
2023/05/28 04:07:42;;;;;;;34.03;11.63;;;;;;;8.26;100.00;101790.56;7390577;19;20832;-39
2023/05/28 04:10:15;;;;;;;28.10;10.67;;;;;;;8.29;100.00;101795.88;7395384;19;20413;-39
2023/05/28 04:12:44;;;;;;;27.70;11.00;;;;;;;8.33;100.00;101803.03;7388760;19;20749;-37
2023/05/28 04:15:14;;;;;;;31.30;10.20;;;;;;;8.35;100.00;101798.88;7389075;19;20446;-38
2023/05/28 04:17:43;;;;;;;25.60;10.30;;;;;;;8.41;100.00;101809.56;7389222;19;20410;-39
2023/05/28 04:20:13;;;;;;;27.07;9.93;;;;;;;8.46;100.00;101807.34;7394706;19;20392;-37
2023/05/28 04:22:43;;;;;;;26.60;10.20;;;;;;;8.55;100.00;101813.13;7386846;19;20414;-36
2023/05/28 04:25:15;;;;;;;26.47;9.70;;;;;;;8.63;100.00;101811.06;7390279;19;20426;-37
2023/05/28 04:27:44;;;;;;;21.73;10.57;;;;;;;8.70;100.00;101810.69;7387421;19;20415;-36
2023/05/28 04:30:14;;;;;;;26.93;10.73;;;;;;;8.81;100.00;101807.94;7391243;19;20798;-37
2023/05/28 04:32:44;;;;;;;26.53;10.10;;;;;;;8.85;100.00;101802.19;7386085;19;20410;-37
2023/05/28 04:35:14;;;;;;;30.33;9.63;;;;;;;8.91;100.00;101810.31;7390631;19;20430;-37
2023/05/28 04:37:44;;;;;;;23.13;9.43;;;;;;;8.95;100.00;101812.28;7386726;19;20471;-37
2023/05/28 04:40:17;;;;;;;22.93;9.90;;;;;;;9.06;100.00;101812.97;7390669;19;21003;-37
2023/05/28 04:42:47;;;;;;;22.20;8.90;;;;;;;9.13;100.00;101809.13;7386209;19;20958;-36
2023/05/28 04:45:16;;;;;;;26.57;9.30;;;;;;;9.21;100.00;101807.94;7389895;19;20411;-42
2023/05/28 04:47:46;;;;;;;24.57;10.00;;;;;;;9.30;100.00;101813.69;7388337;19;20441;-39
2023/05/28 04:50:16;;;;;;;22.03;9.33;;;;;;;9.38;100.00;101811.56;7391260;19;20414;-37
2023/05/28 04:52:46;;;;;;;20.37;8.50;;;;;;;9.51;100.00;101821.00;7385273;19;20419;-38
2023/05/28 04:55:18;;;;;;;24.67;9.10;;;;;;;9.54;100.00;101823.75;7389341;19;20419;-39
2023/05/28 04:57:48;;;;;;;29.07;9.93;;;;;;;9.57;100.00;101829.09;7386364;19;20413;-37
2023/05/28 05:00:18;;;;;;;26.40;8.60;;;;;;;9.68;100.00;101834.03;7394555;19;20387;-36
2023/05/28 05:02:49;;;;;;;17.93;8.73;;;;;;;9.76;100.00;101835.41;7392814;19;20490;-37
2023/05/28 05:05:20;;;;;;;25.77;9.23;;;;;;;9.85;100.00;101841.13;7396365;19;20970;-39
2023/05/28 05:07:51;;;;;;;21.23;8.50;;;;;;;9.96;100.00;101840.91;7390423;19;20419;-35
2023/05/28 05:10:24;;;;;;;22.70;8.43;;;;;;;10.11;100.00;101847.00;7395136;19;20384;-38
2023/05/28 05:12:53;;;;;;;21.17;8.30;;;;;;;10.22;100.00;101851.94;7391736;19;20471;-37
2023/05/28 05:15:23;;;;;;;21.80;8.00;;;;;;;10.31;100.00;101857.63;7394464;19;20856;-37
2023/05/28 05:17:53;;;;;;;17.63;7.97;;;;;;;10.43;100.00;101854.94;7392114;19;20810;-38
2023/05/28 05:20:22;;;;;;;24.70;7.97;;;;;;;10.52;100.00;101859.78;7394747;19;20920;-37
2023/05/28 05:22:52;;;;;;;14.43;7.77;;;;;;;10.64;100.00;101862.16;7392291;19;20767;-36
2023/05/28 05:25:24;;;;;;;17.67;8.33;;;;;;;10.65;100.00;101864.84;7395568;19;20430;-36
2023/05/28 05:27:54;;;;;;;24.63;7.23;;;;;;;10.73;100.00;101874.72;7392834;19;20417;-38
2023/05/28 05:30:24;;;;;;;20.53;7.27;;;;;;;10.80;100.00;101879.47;7394969;19;20956;-38
2023/05/28 05:32:53;;;;;;;13.83;6.20;;;;;;;10.84;100.00;101889.16;7391343;19;20424;-38
2023/05/28 05:35:23;;;;;;;18.33;6.67;;;;;;;10.87;100.00;101884.16;7394112;19;20444;-36
2023/05/28 05:37:52;;;;;;;17.70;6.13;;;;;;;10.86;100.00;101895.31;7393345;19;20424;-38
2023/05/28 05:40:27;;;;;;;15.30;6.00;;;;;;;10.89;100.00;101897.19;7394097;19;20452;-38
2023/05/28 05:42:57;;;;;;;21.03;6.53;;;;;;;10.98;100.00;101896.84;7391342;19;20425;-39
2023/05/28 05:45:27;;;;;;;49.67;21.80;;;;;;;11.37;100.00;101894.75;7393975;19;20802;-37
2023/05/28 05:47:56;;;;;;;24.93;13.30;;;;;;;11.84;100.00;101892.16;7391799;19;20421;-38
2023/05/28 05:50:26;;;;;;;33.57;16.17;;;;;;;12.40;100.00;101892.53;7394466;19;20402;-37
2023/05/28 05:52:59;;;;;;;23.97;11.67;;;;;;;11.98;100.00;101906.72;7390526;19;20958;-37
2023/05/28 05:55:31;;;;;;;19.47;9.07;;;;;;;11.89;100.00;101916.56;7398215;19;20439;-37
2023/05/28 05:58:01;;;;;;;16.50;7.97;;;;;;;11.88;100.00;101909.59;7391198;19;20418;-38
2023/05/28 06:00:31;;;;;;;23.67;11.10;;;;;;;12.04;100.00;101921.72;7393912;19;20452;-37
2023/05/28 06:03:01;;;;;;;28.03;9.27;;;;;;;12.15;100.00;101930.03;7392125;19;20429;-38
2023/05/28 06:05:31;;;;;;;20.40;8.13;;;;;;;12.05;100.00;101923.47;7394970;19;20419;-37
2023/05/28 06:08:00;;;;;;;16.70;6.90;;;;;;;12.26;100.00;101922.88;7388994;19;20407;-39
2023/05/28 06:10:33;;;;;;;24.70;6.60;;;;;;;12.66;100.00;101926.66;7398214;19;20476;-38
2023/05/28 06:13:03;;;;;;;16.03;7.70;;;;;;;12.63;100.00;101944.63;7390639;19;20429;-37
2023/05/28 06:15:34;;;;;;;20.33;6.37;;;;;;;12.47;100.00;101943.84;7398589;19;20519;-37
2023/05/28 06:18:04;;;;;;;13.90;5.23;;;;;;;12.61;100.00;101941.97;7390845;19;20426;-41
2023/05/28 06:20:34;;;;;;;12.30;5.30;;;;;;;12.57;100.00;101958.16;7392961;19;20399;-38
2023/05/28 06:23:04;;;;;;;13.00;5.00;;;;;;;12.53;100.00;101957.09;7392244;19;20429;-37
2023/05/28 06:25:37;;;;;;;25.17;6.20;;;;;;;12.68;100.00;101964.75;7393288;19;20529;-37
2023/05/28 06:28:07;;;;;;;16.20;4.83;;;;;;;12.72;100.00;101972.72;7390433;19;20432;-36
2023/05/28 06:30:36;;;;;;;19.70;7.50;;;;;;;12.79;100.00;101967.94;7395518;19;20409;-38
2023/05/28 06:33:06;;;;;;;16.53;6.77;;;;;;;12.79;100.00;101973.13;7390318;19;20438;-36
2023/05/28 06:35:36;;;;;;;11.87;5.20;;;;;;;12.77;100.00;101977.31;7392749;19;20419;-37
2023/05/28 06:38:06;;;;;;;13.10;5.50;;;;;;;12.87;100.00;101981.25;7390591;19;20429;-36
2023/05/28 06:40:38;;;;;;;17.73;5.70;;;;;;;13.08;100.00;101976.28;7394829;19;20478;-38
2023/05/28 06:43:08;;;;;;;13.43;4.33;;;;;;;13.20;100.00;101972.56;7389572;19;20494;-38
2023/05/28 06:45:38;;;;;;;19.27;5.57;;;;;;;13.36;100.00;101975.09;7394616;19;20458;-39
2023/05/28 06:48:08;;;;;;;16.43;4.97;;;;;;;13.42;100.00;101981.38;7390543;19;20506;-36
2023/05/28 06:50:38;;;;;;;17.27;5.13;;;;;;;13.37;100.00;101982.06;7393188;19;20398;-37
2023/05/28 06:53:08;;;;;;;17.70;5.60;;;;;;;13.50;100.00;101980.13;7388344;19;20956;-37
2023/05/28 06:55:40;;;;;;;16.93;5.87;;;;;;;13.46;100.00;101984.25;7395818;19;20451;-40
2023/05/28 06:58:12;;;;;;;20.53;7.50;;;;;;;13.51;100.00;101976.72;7390391;19;20446;-38
2023/05/28 07:00:42;;;;;;;16.27;4.80;;;;;;;13.55;100.00;101973.47;7395312;19;20409;-37
2023/05/28 07:03:12;;;;;;;13.67;5.50;;;;;;;13.63;100.00;101977.31;7391994;19;20841;-37
2023/05/28 07:05:41;;;;;;;14.37;6.00;;;;;;;13.64;100.00;101968.72;7395399;19;20535;-37
2023/05/28 07:08:12;;;;;;;11.63;4.33;;;;;;;13.71;100.00;101979.38;7393591;19;20418;-37
2023/05/28 07:10:44;;;;;;;14.10;4.83;;;;;;;13.80;100.00;101985.03;7396549;19;20464;-36
2023/05/28 07:13:14;;;;;;;11.23;4.37;;;;;;;13.71;100.00;101987.16;7392082;19;20507;-40
2023/05/28 07:15:44;;;;;;;17.80;5.33;;;;;;;13.62;100.00;101992.78;7395468;19;20439;-37
2023/05/28 07:18:14;;;;;;;34.63;15.20;;;;;;;13.61;100.00;101991.91;7388633;19;20820;-39
2023/05/28 07:20:44;;;;;;;14.87;4.60;;;;;;;13.61;100.00;102015.25;7395274;19;20411;-37
2023/05/28 07:23:13;;;;;;;17.07;5.03;;;;;;;13.61;100.00;102027.31;7390330;19;20441;-38
2023/05/28 07:25:46;;;;;;;12.90;4.27;;;;;;;13.71;100.00;102028.66;7396319;19;20486;-36
2023/05/28 07:28:15;;;;;;;14.63;4.53;;;;;;;13.84;100.00;102033.63;7391470;19;20443;-37
2023/05/28 07:30:45;;;;;;;21.37;6.07;;;;;;;13.73;100.00;102040.88;7394928;19;20429;-39
2023/05/28 07:33:15;;;;;;;14.97;4.30;;;;;;;13.86;100.00;102052.75;7391591;19;20987;-40
2023/05/28 07:35:45;;;;;;;35.60;16.67;;;;;;;13.87;100.00;102070.09;7395144;19;20456;-37
2023/05/28 07:38:15;;;;;;;14.10;6.17;;;;;;;14.11;100.00;102079.88;7391868;19;20542;-37
2023/05/28 07:40:47;;;;;;;16.83;5.27;;;;;;;14.28;100.00;102090.19;7395761;19;20748;-36
2023/05/28 07:43:17;;;;;;;21.27;7.70;;;;;;;14.39;100.00;102089.00;7389960;19;20443;-39
2023/05/28 07:45:47;;;;;;;13.73;4.00;;;;;;;14.51;100.00;102098.19;7394577;19;20454;-37
2023/05/28 07:48:16;;;;;;;18.10;6.17;;;;;;;14.52;100.00;102099.97;7392176;19;20443;-37
2023/05/28 07:50:46;;;;;;;23.73;6.93;;;;;;;14.56;100.00;102113.16;7395038;19;20409;-35
2023/05/28 07:53:16;;;;;;;21.53;5.77;;;;;;;14.69;100.00;102114.63;7391918;19;20990;-37
2023/05/28 07:55:48;;;;;;;13.17;4.43;;;;;;;14.83;100.00;102122.19;7395451;19;20451;-37
2023/05/28 07:58:18;;;;;;;32.23;12.90;;;;;;;14.90;100.00;102133.75;7391360;19;20959;-38
2023/05/28 08:00:48;;;;;;;13.10;3.80;;;;;;;14.93;100.00;102134.78;7394474;19;20432;-38
2023/05/28 08:03:17;;;;;;;20.70;6.73;;;;;;;15.04;100.00;102144.78;7389855;19;20537;-36
2023/05/28 08:05:47;;;;;;;10.17;4.20;;;;;;;15.20;100.00;102148.97;7394046;19;20452;-38
2023/05/28 08:08:17;;;;;;;12.30;3.90;;;;;;;15.33;100.00;102145.22;7391895;19;20529;-38
2023/05/28 08:10:50;;;;;;;22.20;7.90;;;;;;;15.45;100.00;102158.75;7393935;19;20418;-38
2023/05/28 08:13:20;;;;;;;46.77;18.77;;;;;;;15.62;100.00;102164.69;7384659;19;20526;-36
2023/05/28 08:15:50;;;;;;;12.77;3.63;;;;;;;15.72;100.00;102171.16;7393699;19;20836;-36
2023/05/28 08:18:20;;;;;;;14.77;4.17;;;;;;;15.76;100.00;102180.91;7390115;19;20439;-36
2023/05/28 08:20:50;;;;;;;26.43;9.20;;;;;;;15.86;100.00;102189.09;7395442;19;20771;-37
2023/05/28 08:23:20;;;;;;;10.63;3.40;;;;;;;15.84;100.00;102193.34;7389532;19;20431;-36
2023/05/28 08:25:52;;;;;;;44.43;24.60;;;;;;;16.21;100.00;102194.94;7393615;19;20455;-38
2023/05/28 08:28:26;;;;;;;36.07;17.50;;;;;;;16.42;100.00;102199.22;7388662;19;20451;-35
2023/05/28 08:30:55;;;;;;;28.03;15.10;;;;;;;16.66;100.00;102201.03;7394517;19;20496;-35
2023/05/28 08:33:25;;;;;;;29.83;11.50;;;;;;;16.53;100.00;102234.41;7388898;19;20457;-36
2023/05/28 08:35:55;;;;;;;25.90;13.27;;;;;;;16.60;100.00;102244.25;7391082;19;20490;-36
2023/05/28 08:38:25;;;;;;;25.60;10.47;;;;;;;16.63;100.00;102253.00;7388392;19;20789;-36
2023/05/28 08:40:58;;;;;;;12.77;4.50;;;;;;;16.72;100.00;102245.59;7395429;19;20406;-36
2023/05/28 08:43:28;;;;;;;12.30;4.57;;;;;;;16.78;100.00;102251.03;7387315;19;21001;-36
2023/05/28 08:45:57;;;;;;;9.10;3.33;;;;;;;16.93;100.00;102266.41;7393370;19;20470;-36
2023/05/28 08:48:28;;;;;;;16.87;6.30;;;;;;;16.86;100.00;102262.66;7387807;19;20435;-36
2023/05/28 08:50:58;;;;;;;11.87;3.83;;;;;;;17.02;100.00;102273.69;7395202;19;20401;-36
2023/05/28 08:53:30;;;;;;;9.90;3.43;;;;;;;17.17;100.00;102280.38;7387737;19;20439;-35
2023/05/28 08:56:02;;;;;;;10.30;4.87;;;;;;;17.27;100.00;102277.25;7393314;19;20457;-38
2023/05/28 08:58:32;;;;;;;8.63;3.70;;;;;;;17.28;100.00;102273.84;7388404;19;20502;-37
2023/05/28 09:01:02;;;;;;;11.60;3.70;;;;;;;17.49;100.00;102278.09;7392491;19;21255;-35
2023/05/28 09:03:32;;;;;;;10.83;3.87;;;;;;;17.43;100.00;102278.72;7387540;19;20437;-36
2023/05/28 09:06:02;;;;;;;17.10;6.70;;;;;;;17.50;100.00;102279.88;7392724;19;20452;-35
2023/05/28 09:08:31;;;;;;;24.53;8.47;;;;;;;17.63;100.00;102278.56;7388974;19;20878;-36
2023/05/28 09:11:11;;;;;;;10.23;3.70;;;;;;;17.66;100.00;102269.16;7394171;19;20425;-37
2023/05/28 09:13:44;;;;;;;25.63;10.30;;;;;;;17.74;100.00;102269.44;7388180;19;20789;-37
2023/05/28 09:16:17;;;;;;;10.90;3.80;;;;;;;17.90;100.00;102264.78;7392859;19;20451;-37
2023/05/28 09:18:47;;;;;;;20.70;4.77;;;;;;;18.10;100.00;102265.47;7387596;19;20545;-36
2023/05/28 09:21:17;;;;;;;16.63;6.27;;;;;;;18.07;100.00;102262.78;7392679;19;20415;-37
2023/05/28 09:23:49;;;;;;;14.30;4.00;;;;;;;18.18;100.00;102258.81;7389711;19;20442;-36
2023/05/28 09:26:22;;;;;;;12.50;3.70;;;;;;;18.29;100.00;102247.81;7390083;19;20439;-36
2023/05/28 09:28:52;;;;;;;14.33;5.80;;;;;;;18.42;100.00;102249.13;7388883;19;20974;-36
2023/05/28 09:31:22;;;;;;;14.97;6.50;;;;;;;18.39;100.00;102239.47;7390752;19;20415;-36
2023/05/28 09:33:52;;;;;;;9.50;3.60;;;;;;;18.56;100.00;102246.97;7387534;19;20438;-37
2023/05/28 09:36:22;;;;;;;12.43;4.20;;;;;;;18.56;100.00;102233.91;7390450;19;20450;-39
2023/05/28 09:38:52;;;;;;;13.87;5.43;;;;;;;18.63;100.00;102217.59;7388394;19;20498;-38
2023/05/28 09:41:27;;;;;;;20.57;10.03;;;;;;;18.69;100.00;102189.03;7390193;19;20411;-36
2023/05/28 09:44:00;;;;;;;13.23;3.90;;;;;;;18.85;100.00;102168.56;7385737;19;20450;-36
2023/05/28 09:46:31;;;;;;;26.00;11.60;;;;;;;18.67;100.00;102093.09;7392008;19;20431;-37
2023/05/28 09:49:01;;;;;;;9.83;3.77;;;;;;;18.72;100.00;102055.78;7387482;19;20427;-37
2023/05/28 09:51:32;;;;;;;13.27;5.00;;;;;;;18.84;100.00;101987.28;7393647;19;20732;-36
2023/05/28 09:54:04;;;;;;;10.77;4.23;;;;;;;19.00;100.00;101876.16;7391920;19;20457;-36
2023/05/28 09:56:37;;;;;;;13.10;3.60;;;;;;;19.08;100.00;101753.44;7392330;19;20846;-35
2023/05/28 09:59:09;;;;;;;9.40;4.53;;;;;;;19.02;100.00;101542.38;7389884;19;20439;-37
2023/05/28 10:01:43;;;;;;;19.23;5.87;;;;;;;19.25;100.00;101531.47;7391751;19;20396;-38
2023/05/28 10:04:16;;;;;;;28.33;12.10;;;;;;;19.40;100.00;101591.06;7392790;19;20494;-37
2023/05/28 10:06:46;;;;;;;15.30;4.80;;;;;;;19.44;100.00;101688.78;7392659;19;20392;-37
2023/05/28 10:09:18;;;;;;;24.70;6.53;;;;;;;19.63;100.00;101720.56;7390439;19;20411;-39
2023/05/28 10:11:56;;;;;;;12.70;4.40;;;;;;;19.61;100.00;101771.97;7393392;19;20407;-38
2023/05/28 10:14:26;;;;;;;16.53;4.10;;;;;;;20.01;100.00;101771.91;7390073;19;21396;-37
2023/05/28 10:16:56;;;;;;;13.10;4.10;;;;;;;20.21;100.00;101808.97;7394738;19;20405;-37
2023/05/28 10:19:26;;;;;;;12.90;3.90;;;;;;;20.00;100.00;101812.03;7391308;19;20474;-38
2023/05/28 10:21:56;;;;;;;15.43;4.30;;;;;;;19.51;100.00;101797.97;7397143;19;20408;-38
2023/05/28 10:24:26;;;;;;;14.07;3.90;;;;;;;18.95;100.00;101761.81;7391294;19;21123;-38
2023/05/28 10:26:58;;;;;;;24.00;10.30;;;;;;;19.10;100.00;101763.94;7391930;19;20396;-36
2023/05/28 10:29:29;;;;;;;28.03;12.23;;;;;;;19.09;100.00;101751.72;7390717;19;20430;-38
2023/05/28 10:32:02;;;;;;;9.10;3.80;;;;;;;18.96;100.00;101706.94;7391497;19;20467;-38
2023/05/28 10:34:33;;;;;;;10.10;3.73;;;;;;;19.49;100.00;101679.28;7383953;19;20452;-37
2023/05/28 10:37:03;;;;;;;16.33;5.37;;;;;;;19.82;100.00;101750.56;7392484;19;20451;-38
2023/05/28 10:39:41;;;;;;;11.57;3.80;;;;;;;20.18;100.00;101803.66;7390399;19;20423;-37
2023/05/28 10:42:16;;;;;;;12.17;3.80;;;;;;;20.29;100.00;101837.91;7391884;19;20399;-38
2023/05/28 10:45:09;;;;;;;14.97;4.60;;;;;;;20.45;100.00;101849.56;7393905;19;20474;-36
2023/05/28 10:47:42;;;;;;;15.77;4.17;;;;;;;20.21;100.00;101850.88;7391344;19;20419;-37
2023/05/28 10:50:15;;;;;;;11.37;4.67;;;;;;;20.45;100.00;101852.19;7392632;19;20416;-36
2023/05/28 10:53:06;;;;;;;11.90;4.57;;;;;;;20.68;100.00;101864.81;7389366;19;21131;-37
2023/05/28 10:55:50;;;;;;;13.03;4.50;;;;;;;20.75;100.00;101879.78;7393230;19;21084;-37
2023/05/28 10:58:31;;;;;;;12.57;4.00;;;;;;;20.95;100.00;101868.75;7388486;19;20403;-39
2023/05/28 11:01:06;;;;;;;18.57;5.60;;;;;;;21.06;100.00;101882.94;7392690;19;20388;-38
2023/05/28 11:03:46;;;;;;;28.67;13.10;;;;;;;21.21;100.00;101902.44;7386860;19;20442;-38
2023/05/28 11:06:16;;;;;;;19.30;7.93;;;;;;;20.89;100.00;101904.56;7387811;19;20506;-37
2023/05/28 11:08:48;;;;;;;22.70;13.27;;;;;;;20.92;100.00;101922.09;7391934;19;20447;-36
2023/05/28 11:11:19;;;;;;;23.03;12.00;;;;;;;20.72;100.00;101919.94;7396572;19;20408;-37
2023/05/28 11:13:51;;;;;;;13.30;5.40;;;;;;;20.45;100.00;101900.22;7391956;19;20443;-37
2023/05/28 11:16:21;;;;;;;18.00;8.10;;;;;;;20.15;100.00;101880.44;7395854;19;20451;-36
2023/05/28 11:19:04;;;;;;;12.00;5.60;;;;;;;20.58;100.00;101872.53;7390949;19;20517;-39
2023/05/28 11:21:35;;;;;;;32.00;12.80;;;;;;;20.29;100.00;101893.81;7395713;19;20417;-36
2023/05/28 11:24:07;;;;;;;23.33;9.07;;;;;;;20.07;100.00;101875.06;7390431;19;20443;-36
2023/05/28 11:26:36;;;;;;;17.23;4.10;;;;;;;20.05;100.00;101884.59;7394707;19;20452;-37
2023/05/28 11:29:09;;;;;;;12.60;4.10;;;;;;;20.29;100.00;101893.81;7384214;19;20449;-37